Decoded Metar for SARI (IGUAZU FALLS in ARGENTINA) (IATA:IGR) | Meteo·Mobile Aviation Weather
aviador You're here:

SARI Decoded Metar

IGUAZU FALLS in ARGENTINA
Report Time2019-03-21 21:00:00
UTC Time2019-03-21 21:41:43
Flight Rules vfr VFR
Wind180° at 08 kt
W.Decomp.*RWY 13: 3.4 kt HW 7.3 kt RCW
W.Rank180° ranks 2
Current wind is above 180° avg. (6.8)
Visibility9999 m
Phenomena:N/A
Clouds:Few 030 Hf
Expected CloudBase > 3,200 ft AGL from Temp-Dew spread
CeilingNone
Temp26°C (ISA +13)
Dew Point18°C (61% RH)
AAT25.9°C
QNH1014 hPa
Density Alt2,602 ft
Elevation886 ft
Report Wrong Elevation
Raw Report
SARI 212100Z 18008KT 9999 FEW030 26/18 Q1014=

Extra information for SARI:More info

Metar Taf Metar & Taf Last 4 Metars F.Rules Stats Wind Profile Meteogram Temp Stats Airport Information Weather charts Add Link Nearby VenuesMetar ALERT Operation Metar Decoded Social comments